Time;durP1;ratioP1;P1;durP2;ratioP2;P2;SDS_P1;SDS_P2;PMS_P1;PMS_P2;Temp;Humidity;BMP_temperature;BMP_pressure;BME280_temperature;BME280_humidity;BME280_pressure;Samples;Min_cycle;Max_cycle;Signal;HPM_P1;HPM_P2
2023/10/29 00:01:13;;;;;;;3.63;1.77;;;;;;;;;;5136456;27;20047;-59
2023/10/29 00:03:39;;;;;;;4.15;2.35;;;;;;;;;;5144172;27;20047;-56
2023/10/29 00:06:06;;;;;;;3.55;2.00;;;;;;;;;;5143911;27;20053;-56
2023/10/29 00:08:34;;;;;;;3.83;1.98;;;;;;;;;;5145391;27;20047;-59
2023/10/29 00:11:00;;;;;;;5.80;2.22;;;;;;;;;;5127085;27;20060;-59
2023/10/29 00:13:27;;;;;;;5.18;2.00;;;;;;;;;;5105464;27;20062;-59
2023/10/29 00:15:53;;;;;;;9.60;1.90;;;;;;;;;;5123797;27;20079;-58
2023/10/29 00:18:20;;;;;;;2.72;1.27;;;;;;;;;;5132064;27;20110;-58
2023/10/29 00:20:46;;;;;;;5.53;2.20;;;;;;;;;;5143624;27;20070;-59
2023/10/29 00:23:13;;;;;;;2.17;1.70;;;;;;;;;;5144146;27;20075;-58
2023/10/29 00:25:40;;;;;;;4.20;1.70;;;;;;;;;;5140259;27;20055;-56
2023/10/29 00:28:07;;;;;;;3.13;1.60;;;;;;;;;;5137239;27;20148;-60
2023/10/29 00:30:34;;;;;;;3.05;1.95;;;;;;;;;;5121501;27;20047;-57
2023/10/29 00:33:01;;;;;;;4.30;1.75;;;;;;;;;;5134736;27;20093;-59
2023/10/29 00:35:27;;;;;;;2.25;1.20;;;;;;;;;;5130999;27;20044;-59
2023/10/29 00:37:53;;;;;;;3.92;2.20;;;;;;;;;;5141475;27;20478;-59
2023/10/29 00:40:20;;;;;;;3.70;1.60;;;;;;;;;;5124202;27;20448;-59
2023/10/29 00:42:46;;;;;;;2.47;1.38;;;;;;;;;;5139265;27;20496;-59
2023/10/29 00:45:13;;;;;;;5.13;1.80;;;;;;;;;;5133309;27;20051;-57
2023/10/29 00:47:39;;;;;;;2.80;1.42;;;;;;;;;;5126785;27;20051;-58
2023/10/29 00:50:06;;;;;;;4.75;1.60;;;;;;;;;;5143307;27;20043;-58
2023/10/29 00:52:32;;;;;;;2.65;1.90;;;;;;;;;;5125731;27;20051;-59
2023/10/29 00:54:59;;;;;;;5.20;1.55;;;;;;;;;;5136341;27;20650;-59
2023/10/29 00:57:26;;;;;;;4.43;1.33;;;;;;;;;;5139959;27;20051;-58
2023/10/29 00:59:53;;;;;;;4.60;1.70;;;;;;;;;;5139279;27;20427;-59
2023/10/29 01:02:20;;;;;;;1.58;1.42;;;;;;;;;;5143170;27;20051;-58
2023/10/29 01:04:46;;;;;;;2.05;1.45;;;;;;;;;;5129999;27;20502;-59
2023/10/29 01:07:13;;;;;;;2.95;1.55;;;;;;;;;;5127540;27;20599;-58
2023/10/29 01:09:42;;;;;;;3.33;1.33;;;;;;;;;;5114630;27;20402;-58
2023/10/29 01:12:15;;;;;;;6.60;1.50;;;;;;;;;;5144898;27;20587;-58
2023/10/29 01:14:43;;;;;;;5.72;1.23;;;;;;;;;;5138033;27;20134;-58
2023/10/29 01:17:09;;;;;;;2.47;1.10;;;;;;;;;;5134463;27;20596;-57
2023/10/29 01:19:36;;;;;;;2.78;1.60;;;;;;;;;;5139121;27;20513;-58
2023/10/29 01:22:02;;;;;;;3.92;1.30;;;;;;;;;;5123379;27;20063;-58
2023/10/29 01:24:29;;;;;;;2.25;1.33;;;;;;;;;;5141562;27;20524;-57
2023/10/29 01:26:55;;;;;;;3.03;1.33;;;;;;;;;;5142324;27;20055;-56
2023/10/29 01:29:22;;;;;;;3.55;1.67;;;;;;;;;;5119916;27;20117;-59
2023/10/29 01:31:49;;;;;;;1.92;1.48;;;;;;;;;;5125079;27;20051;-59
2023/10/29 01:34:17;;;;;;;3.25;1.10;;;;;;;;;;5123657;27;20052;-58
2023/10/29 01:36:43;;;;;;;6.47;1.50;;;;;;;;;;5139587;27;20054;-58
2023/10/29 01:39:09;;;;;;;1.45;1.10;;;;;;;;;;5133318;27;20625;-58
2023/10/29 01:41:36;;;;;;;2.40;1.38;;;;;;;;;;5142514;27;20055;-58
2023/10/29 01:44:02;;;;;;;2.90;1.13;;;;;;;;;;5143776;27;20082;-58
2023/10/29 01:46:29;;;;;;;3.70;1.30;;;;;;;;;;5125330;27;20059;-58
2023/10/29 01:48:55;;;;;;;2.25;1.20;;;;;;;;;;5133763;27;20062;-59
2023/10/29 01:51:22;;;;;;;1.13;1.02;;;;;;;;;;5140584;27;20104;-58
2023/10/29 01:53:49;;;;;;;2.10;1.27;;;;;;;;;;5143028;27;20051;-58
2023/10/29 01:56:15;;;;;;;1.73;1.27;;;;;;;;;;5123837;27;20139;-58
2023/10/29 01:58:42;;;;;;;3.60;1.42;;;;;;;;;;5135921;27;20081;-58
2023/10/29 02:01:10;;;;;;;2.45;0.98;;;;;;;;;;5144437;27;20078;-59
2023/10/29 02:03:36;;;;;;;2.53;1.40;;;;;;;;;;5146232;27;20051;-59
2023/10/29 02:06:04;;;;;;;2.53;1.27;;;;;;;;;;5146217;27;20062;-59
2023/10/29 02:08:31;;;;;;;3.45;1.63;;;;;;;;;;5139962;27;20126;-58
2023/10/29 02:10:58;;;;;;;2.55;1.20;;;;;;;;;;5142007;27;20155;-58
2023/10/29 02:13:24;;;;;;;1.90;1.70;;;;;;;;;;5146507;27;20051;-60
2023/10/29 02:15:50;;;;;;;5.03;1.40;;;;;;;;;;5147391;27;20057;-58
2023/10/29 02:18:17;;;;;;;5.25;1.20;;;;;;;;;;5145293;27;20505;-58
2023/10/29 02:20:44;;;;;;;3.67;1.25;;;;;;;;;;5133713;27;20056;-59
2023/10/29 02:23:11;;;;;;;1.52;0.82;;;;;;;;;;5124963;27;20497;-58
2023/10/29 02:25:37;;;;;;;3.10;1.25;;;;;;;;;;5126762;27;20047;-60
2023/10/29 02:28:05;;;;;;;3.03;0.93;;;;;;;;;;5145829;27;20521;-58
2023/10/29 02:30:31;;;;;;;3.13;1.52;;;;;;;;;;5133886;27;20120;-59
2023/10/29 02:32:58;;;;;;;1.45;1.20;;;;;;;;;;5137967;27;20087;-56
2023/10/29 02:35:24;;;;;;;4.45;1.65;;;;;;;;;;5142272;27;20051;-56
2023/10/29 02:37:51;;;;;;;2.83;0.98;;;;;;;;;;5147354;27;20051;-58
2023/10/29 02:40:19;;;;;;;3.08;1.35;;;;;;;;;;5135752;27;20051;-59
2023/10/29 02:42:46;;;;;;;6.25;1.20;;;;;;;;;;5146294;27;20102;-58
2023/10/29 02:45:12;;;;;;;1.90;1.60;;;;;;;;;;5110629;27;20126;-58
2023/10/29 02:47:39;;;;;;;3.92;1.10;;;;;;;;;;5140028;27;20051;-58
2023/10/29 02:50:05;;;;;;;1.90;1.20;;;;;;;;;;5133503;27;20082;-57
2023/10/29 02:52:32;;;;;;;1.70;1.00;;;;;;;;;;5139180;27;20055;-59
2023/10/29 02:54:58;;;;;;;2.13;1.17;;;;;;;;;;5136120;27;20083;-58
2023/10/29 02:57:25;;;;;;;1.58;1.17;;;;;;;;;;5125505;27;20105;-59
2023/10/29 02:59:51;;;;;;;2.60;1.20;;;;;;;;;;5141125;27;20063;-59
2023/10/29 03:02:17;;;;;;;3.13;1.00;;;;;;;;;;5145829;27;20994;-57
2023/10/29 03:04:44;;;;;;;2.35;0.95;;;;;;;;;;5144966;27;20112;-57
2023/10/29 03:07:11;;;;;;;2.22;1.00;;;;;;;;;;5128889;27;20136;-59
2023/10/29 03:09:39;;;;;;;1.45;0.88;;;;;;;;;;5127204;27;20575;-59
2023/10/29 03:12:06;;;;;;;3.08;0.85;;;;;;;;;;5123981;27;20055;-59
2023/10/29 03:14:32;;;;;;;3.38;0.75;;;;;;;;;;5125406;27;20134;-59
2023/10/29 03:16:59;;;;;;;1.63;0.90;;;;;;;;;;5127454;27;20054;-59
2023/10/29 03:19:25;;;;;;;2.28;1.08;;;;;;;;;;5142369;27;20060;-57
2023/10/29 03:21:52;;;;;;;1.92;0.80;;;;;;;;;;5143835;27;20621;-58
2023/10/29 03:24:18;;;;;;;2.50;1.00;;;;;;;;;;5133300;27;20501;-59
2023/10/29 03:26:45;;;;;;;1.63;0.73;;;;;;;;;;5139799;27;20052;-60
2023/10/29 03:29:11;;;;;;;0.70;0.60;;;;;;;;;;5124798;27;20051;-59
2023/10/29 03:31:38;;;;;;;4.53;0.90;;;;;;;;;;5128048;27;20078;-60
2023/10/29 03:34:05;;;;;;;1.17;0.90;;;;;;;;;;5124418;27;20101;-59
2023/10/29 03:36:31;;;;;;;1.30;0.70;;;;;;;;;;5131588;27;20145;-59
2023/10/29 03:38:58;;;;;;;1.45;0.80;;;;;;;;;;5140938;27;20139;-59
2023/10/29 03:41:24;;;;;;;1.40;0.60;;;;;;;;;;5126600;27;20055;-59
2023/10/29 03:43:50;;;;;;;6.97;1.52;;;;;;;;;;5129326;27;20047;-58
2023/10/29 03:46:17;;;;;;;2.30;0.80;;;;;;;;;;5141674;27;20055;-59
2023/10/29 03:48:45;;;;;;;4.55;1.00;;;;;;;;;;5140971;27;20091;-60
2023/10/29 03:51:12;;;;;;;1.80;0.90;;;;;;;;;;5124535;27;20056;-60
2023/10/29 03:53:39;;;;;;;2.13;0.77;;;;;;;;;;5121415;27;20580;-58
2023/10/29 03:56:06;;;;;;;3.28;0.77;;;;;;;;;;5132978;27;20052;-59
2023/10/29 03:58:33;;;;;;;1.48;0.70;;;;;;;;;;5140007;27;20051;-58
2023/10/29 04:01:01;;;;;;;5.47;1.20;;;;;;;;;;5134527;27;20050;-58
2023/10/29 04:03:28;;;;;;;2.25;0.75;;;;;;;;;;5124085;27;20051;-59
2023/10/29 04:05:55;;;;;;;3.08;1.05;;;;;;;;;;5124769;27;20143;-59
2023/10/29 04:08:21;;;;;;;1.85;0.88;;;;;;;;;;5135257;27;20509;-59
2023/10/29 04:10:48;;;;;;;5.38;0.98;;;;;;;;;;5106273;27;20153;-59
2023/10/29 04:13:14;;;;;;;1.55;0.90;;;;;;;;;;5124278;27;20047;-60
2023/10/29 04:15:40;;;;;;;3.35;0.70;;;;;;;;;;5124152;27;20134;-59
2023/10/29 04:18:07;;;;;;;2.08;0.80;;;;;;;;;;5129557;27;20051;-58
2023/10/29 04:20:33;;;;;;;0.88;0.70;;;;;;;;;;5129127;27;20146;-58
2023/10/29 04:23:00;;;;;;;2.38;0.70;;;;;;;;;;5123933;27;20216;-58
2023/10/29 04:25:26;;;;;;;4.82;1.10;;;;;;;;;;5142055;27;20050;-58
2023/10/29 04:27:52;;;;;;;2.83;1.10;;;;;;;;;;5132626;27;20124;-59
2023/10/29 04:30:19;;;;;;;2.83;0.95;;;;;;;;;;5123074;27;20052;-55
2023/10/29 04:32:45;;;;;;;1.65;0.85;;;;;;;;;;5124157;27;20481;-59
2023/10/29 04:35:12;;;;;;;2.47;0.70;;;;;;;;;;5123769;27;20055;-58
2023/10/29 04:37:39;;;;;;;0.95;0.75;;;;;;;;;;5136113;27;20335;-56
2023/10/29 04:40:05;;;;;;;5.00;1.10;;;;;;;;;;5110758;27;20126;-57
2023/10/29 04:42:32;;;;;;;2.33;0.75;;;;;;;;;;5143196;27;20050;-59
2023/10/29 04:44:58;;;;;;;1.45;0.70;;;;;;;;;;5145084;27;20584;-59
2023/10/29 04:47:25;;;;;;;2.28;0.80;;;;;;;;;;5144467;27;20137;-53
2023/10/29 04:49:51;;;;;;;1.88;0.70;;;;;;;;;;5143630;27;20055;-58
2023/10/29 04:52:18;;;;;;;2.38;0.80;;;;;;;;;;5127594;27;20534;-60
2023/10/29 04:54:44;;;;;;;4.80;1.05;;;;;;;;;;5124579;27;20138;-58
2023/10/29 04:57:11;;;;;;;2.00;0.63;;;;;;;;;;5123380;27;20654;-58
2023/10/29 04:59:37;;;;;;;3.17;1.67;;;;;;;;;;5135287;27;20521;-59
2023/10/29 05:02:04;;;;;;;1.45;0.60;;;;;;;;;;5125578;27;20510;-59
2023/10/29 05:04:31;;;;;;;4.30;1.17;;;;;;;;;;5144650;27;20105;-57
2023/10/29 05:06:57;;;;;;;2.85;0.60;;;;;;;;;;5143670;27;20170;-58
2023/10/29 05:09:24;;;;;;;1.75;0.30;;;;;;;;;;5143410;27;20051;-58
2023/10/29 05:11:50;;;;;;;1.83;0.70;;;;;;;;;;5133183;27;20472;-60
2023/10/29 05:14:16;;;;;;;3.70;0.90;;;;;;;;;;5143464;27;20055;-57
2023/10/29 05:16:43;;;;;;;5.60;0.80;;;;;;;;;;5143841;27;20055;-60
2023/10/29 05:19:09;;;;;;;2.95;0.68;;;;;;;;;;5143247;27;20142;-60
2023/10/29 05:21:36;;;;;;;7.68;0.77;;;;;;;;;;5139499;27;20060;-59
2023/10/29 05:24:02;;;;;;;6.22;1.10;;;;;;;;;;5143747;27;20055;-58
2023/10/29 05:26:29;;;;;;;2.47;0.40;;;;;;;;;;5143505;27;20142;-61
2023/10/29 05:28:55;;;;;;;1.02;0.47;;;;;;;;;;5143489;27;20112;-58
2023/10/29 05:31:21;;;;;;;1.95;0.50;;;;;;;;;;5141778;27;20588;-60
2023/10/29 05:33:48;;;;;;;0.98;0.40;;;;;;;;;;5119985;27;20146;-59
2023/10/29 05:36:16;;;;;;;0.82;0.55;;;;;;;;;;5125653;27;20058;-58
2023/10/29 05:38:43;;;;;;;1.40;0.45;;;;;;;;;;5145401;27;20051;-59
2023/10/29 05:41:09;;;;;;;4.65;0.70;;;;;;;;;;5142798;27;20058;-59
2023/10/29 05:43:36;;;;;;;5.10;0.70;;;;;;;;;;5140528;27;20588;-60
2023/10/29 05:46:03;;;;;;;1.42;0.60;;;;;;;;;;5136045;27;20074;-60
2023/10/29 05:48:29;;;;;;;1.00;0.63;;;;;;;;;;5146812;27;20507;-58
2023/10/29 05:50:56;;;;;;;4.18;0.73;;;;;;;;;;5146247;27;20513;-58
2023/10/29 05:53:23;;;;;;;3.05;0.77;;;;;;;;;;5146661;27;20043;-59
2023/10/29 05:55:50;;;;;;;5.25;0.77;;;;;;;;;;5143607;27;20533;-58
2023/10/29 05:58:17;;;;;;;3.13;0.85;;;;;;;;;;5126504;27;20054;-58
2023/10/29 06:00:43;;;;;;;2.38;0.90;;;;;;;;;;5130310;27;20058;-59
2023/10/29 06:03:10;;;;;;;2.10;0.68;;;;;;;;;;5138610;27;20062;-58
2023/10/29 06:05:36;;;;;;;2.35;0.93;;;;;;;;;;5142147;27;20054;-58
2023/10/29 06:08:05;;;;;;;2.63;0.93;;;;;;;;;;5127180;27;20062;-57
2023/10/29 06:10:31;;;;;;;3.25;0.80;;;;;;;;;;5125715;27;20051;-59
2023/10/29 06:12:59;;;;;;;2.47;0.75;;;;;;;;;;5131710;27;20545;-59
2023/10/29 06:15:26;;;;;;;4.78;0.98;;;;;;;;;;5140017;27;20055;-59
2023/10/29 06:17:55;;;;;;;3.35;1.13;;;;;;;;;;5125641;27;20043;-59
2023/10/29 06:20:22;;;;;;;2.08;0.50;;;;;;;;;;5125502;27;20117;-58
2023/10/29 06:22:49;;;;;;;4.00;0.85;;;;;;;;;;5139386;27;20058;-59
2023/10/29 06:25:16;;;;;;;4.70;0.80;;;;;;;;;;5145012;27;20460;-59
2023/10/29 06:27:42;;;;;;;4.65;1.48;;;;;;;;;;5142106;27;20473;-59
2023/10/29 06:30:11;;;;;;;4.88;1.00;;;;;;;;;;5129215;27;20633;-59
2023/10/29 06:32:37;;;;;;;2.95;0.60;;;;;;;;;;5145252;27;20043;-58
2023/10/29 06:35:04;;;;;;;5.32;0.70;;;;;;;;;;5133753;27;20053;-59
2023/10/29 06:37:30;;;;;;;3.28;1.17;;;;;;;;;;5131461;27;20496;-59
2023/10/29 06:39:56;;;;;;;1.13;0.52;;;;;;;;;;5120192;27;20621;-58
2023/10/29 06:42:23;;;;;;;3.15;0.80;;;;;;;;;;5135487;27;20055;-59
2023/10/29 06:44:49;;;;;;;2.33;0.90;;;;;;;;;;5145639;27;20176;-55
2023/10/29 06:47:16;;;;;;;3.30;0.80;;;;;;;;;;5137204;27;20549;-57
2023/10/29 06:49:43;;;;;;;2.75;0.80;;;;;;;;;;5136901;27;20057;-58
2023/10/29 06:52:09;;;;;;;3.55;0.70;;;;;;;;;;5146323;27;20499;-59
2023/10/29 06:54:36;;;;;;;6.22;1.13;;;;;;;;;;5129862;27;20062;-59
2023/10/29 06:57:04;;;;;;;5.78;0.82;;;;;;;;;;5134345;27;20128;-59
2023/10/29 06:59:31;;;;;;;7.03;1.35;;;;;;;;;;5145445;27;20062;-59
2023/10/29 07:01:59;;;;;;;2.95;1.00;;;;;;;;;;5145496;27;20104;-60
2023/10/29 07:04:25;;;;;;;4.15;1.10;;;;;;;;;;5127107;27;20071;-58
2023/10/29 07:06:52;;;;;;;5.70;1.02;;;;;;;;;;5137921;27;20058;-59
2023/10/29 07:09:19;;;;;;;2.03;0.70;;;;;;;;;;5138943;27;20514;-59
2023/10/29 07:11:45;;;;;;;3.05;0.90;;;;;;;;;;5134331;27;20054;-55
2023/10/29 07:14:12;;;;;;;1.45;0.70;;;;;;;;;;5125106;27;20062;-59
2023/10/29 07:16:43;;;;;;;4.60;1.05;;;;;;;;;;5139260;27;20374;-60
2023/10/29 07:19:10;;;;;;;3.03;0.95;;;;;;;;;;5138233;27;20122;-58
2023/10/29 07:21:37;;;;;;;4.22;1.02;;;;;;;;;;5136635;27;20063;-56
2023/10/29 07:24:05;;;;;;;6.38;1.20;;;;;;;;;;5140419;27;20151;-59
2023/10/29 07:26:33;;;;;;;6.40;0.90;;;;;;;;;;5144988;27;20055;-58
2023/10/29 07:29:00;;;;;;;5.57;1.08;;;;;;;;;;5133603;27;20055;-58
2023/10/29 07:31:26;;;;;;;5.30;1.10;;;;;;;;;;5128782;27;20054;-59
2023/10/29 07:33:53;;;;;;;1.83;0.77;;;;;;;;;;5145118;27;20051;-58
2023/10/29 07:36:20;;;;;;;4.85;1.00;;;;;;;;;;5144829;27;20149;-59
2023/10/29 07:38:47;;;;;;;6.32;1.25;;;;;;;;;;5127156;27;20055;-59
2023/10/29 07:41:18;;;;;;;15.88;1.52;;;;;;;;;;5136129;27;20051;-57
2023/10/29 07:43:44;;;;;;;6.43;1.17;;;;;;;;;;5107780;27;20048;-59
2023/10/29 07:46:11;;;;;;;5.53;1.25;;;;;;;;;;5147101;27;20062;-58
2023/10/29 07:48:37;;;;;;;1.17;0.70;;;;;;;;;;5129712;27;20094;-59
2023/10/29 07:51:03;;;;;;;3.38;0.60;;;;;;;;;;5131807;27;20054;-57
2023/10/29 07:53:33;;;;;;;3.53;1.38;;;;;;;;;;5141668;27;20063;-57
2023/10/29 07:56:09;;;;;;;0.95;0.68;;;;;;;;;;5132188;27;20566;-60
2023/10/29 07:58:36;;;;;;;3.40;1.25;;;;;;;;;;5143777;27;20142;-59
2023/10/29 08:01:09;;;;;;;5.28;1.13;;;;;;;;;;5123317;27;20061;-58
2023/10/29 08:03:36;;;;;;;3.30;1.05;;;;;;;;;;5145267;27;20055;-58
2023/10/29 08:06:03;;;;;;;3.45;0.77;;;;;;;;;;5143058;27;20062;-58
2023/10/29 08:08:29;;;;;;;3.92;1.20;;;;;;;;;;5124937;27;20060;-55
2023/10/29 08:10:55;;;;;;;1.60;0.80;;;;;;;;;;5138571;27;20513;-59
2023/10/29 08:13:22;;;;;;;5.97;1.25;;;;;;;;;;5133802;27;20578;-55
2023/10/29 08:15:49;;;;;;;4.18;1.35;;;;;;;;;;5140669;27;20138;-60
2023/10/29 08:18:15;;;;;;;5.20;1.27;;;;;;;;;;5140439;27;20081;-59
2023/10/29 08:20:42;;;;;;;4.65;1.17;;;;;;;;;;5142910;27;20059;-59
2023/10/29 08:23:08;;;;;;;4.82;1.00;;;;;;;;;;5142737;27;20047;-59
2023/10/29 08:25:35;;;;;;;5.95;1.60;;;;;;;;;;5144482;27;20062;-59
2023/10/29 08:28:01;;;;;;;5.82;1.10;;;;;;;;;;5144978;27;20086;-58
2023/10/29 08:30:28;;;;;;;6.40;1.42;;;;;;;;;;5107201;27;20043;-57
2023/10/29 08:32:55;;;;;;;5.13;1.38;;;;;;;;;;5126173;27;20490;-59
2023/10/29 08:35:22;;;;;;;4.00;1.17;;;;;;;;;;5132037;27;20080;-55
2023/10/29 08:37:48;;;;;;;6.47;1.38;;;;;;;;;;5140888;27;20584;-59
2023/10/29 08:40:15;;;;;;;5.07;1.65;;;;;;;;;;5124423;27;20513;-59
2023/10/29 08:42:42;;;;;;;5.53;1.48;;;;;;;;;;5123126;27;20059;-57
2023/10/29 08:45:09;;;;;;;7.82;1.30;;;;;;;;;;5130635;27;20510;-59
2023/10/29 08:47:36;;;;;;;3.97;1.23;;;;;;;;;;5125832;27;20066;-58
2023/10/29 08:50:04;;;;;;;7.68;1.52;;;;;;;;;;5144119;27;20047;-58
2023/10/29 08:52:30;;;;;;;4.70;1.40;;;;;;;;;;5142881;27;20146;-59
2023/10/29 08:54:56;;;;;;;9.95;1.50;;;;;;;;;;5143076;27;20104;-59
2023/10/29 08:57:23;;;;;;;5.05;1.67;;;;;;;;;;5136967;27;20139;-57
2023/10/29 08:59:49;;;;;;;5.10;1.27;;;;;;;;;;5143769;27;20059;-57
2023/10/29 09:02:16;;;;;;;4.68;1.20;;;;;;;;;;5144755;27;20047;-59
2023/10/29 09:04:42;;;;;;;17.73;1.50;;;;;;;;;;5132763;27;20047;-58
2023/10/29 09:07:08;;;;;;;8.73;1.55;;;;;;;;;;5143803;27;20594;-59
2023/10/29 09:09:38;;;;;;;6.60;1.48;;;;;;;;;;5141688;27;20107;-59
2023/10/29 09:12:05;;;;;;;7.22;1.63;;;;;;;;;;5126761;27;20114;-57
2023/10/29 09:14:31;;;;;;;7.82;1.83;;;;;;;;;;5126817;27;20082;-58
2023/10/29 09:16:57;;;;;;;7.78;1.70;;;;;;;;;;5138214;27;20051;-59
2023/10/29 09:19:27;;;;;;;9.95;2.75;;;;;;;;;;5129367;27;20509;-59
2023/10/29 09:21:54;;;;;;;4.95;1.40;;;;;;;;;;5144336;27;20059;-58
2023/10/29 09:24:20;;;;;;;5.22;1.65;;;;;;;;;;5126878;27;20052;-60
2023/10/29 09:26:46;;;;;;;5.40;1.52;;;;;;;;;;5140161;27;20388;-60
2023/10/29 09:29:13;;;;;;;8.77;1.63;;;;;;;;;;5144881;27;20074;-59
2023/10/29 09:31:39;;;;;;;8.02;1.67;;;;;;;;;;5143624;27;20055;-59
2023/10/29 09:34:06;;;;;;;6.45;1.60;;;;;;;;;;5147054;27;20142;-59
2023/10/29 09:36:32;;;;;;;7.50;1.65;;;;;;;;;;5129837;27;20048;-58
2023/10/29 09:38:59;;;;;;;4.95;1.25;;;;;;;;;;5135733;27;20762;-59
2023/10/29 09:41:26;;;;;;;17.25;1.65;;;;;;;;;;5128223;27;20058;-60
2023/10/29 09:43:53;;;;;;;6.78;1.63;;;;;;;;;;5127633;27;20043;-59
2023/10/29 09:46:21;;;;;;;4.10;1.40;;;;;;;;;;5143915;27;20058;-57
2023/10/29 09:48:48;;;;;;;7.70;1.58;;;;;;;;;;5135528;27;20055;-59
2023/10/29 09:51:15;;;;;;;10.68;1.55;;;;;;;;;;5126543;27;20044;-58
2023/10/29 09:53:41;;;;;;;7.75;1.50;;;;;;;;;;5147594;27;20497;-59
2023/10/29 09:56:08;;;;;;;7.50;1.25;;;;;;;;;;5146725;27;20134;-59
2023/10/29 09:58:35;;;;;;;4.13;1.05;;;;;;;;;;5142930;27;20184;-55
2023/10/29 10:01:04;;;;;;;6.80;1.58;;;;;;;;;;5119677;27;20056;-58
2023/10/29 10:03:31;;;;;;;7.10;1.20;;;;;;;;;;5127889;27;20051;-58
2023/10/29 10:05:58;;;;;;;7.40;1.60;;;;;;;;;;5147097;27;20491;-59
2023/10/29 10:08:28;;;;;;;5.47;1.38;;;;;;;;;;5128578;27;20505;-58
2023/10/29 10:10:55;;;;;;;5.80;1.52;;;;;;;;;;5136296;27;20048;-59
2023/10/29 10:13:35;;;;;;;7.20;1.42;;;;;;;;;;5134445;27;20415;-60
2023/10/29 10:16:10;;;;;;;11.35;1.75;;;;;;;;;;5145865;27;20146;-57
2023/10/29 10:18:58;;;;;;;5.15;1.15;;;;;;;;;;5127057;27;20048;-59
2023/10/29 10:21:26;;;;;;;8.15;1.77;;;;;;;;;;5124534;27;20652;-60
2023/10/29 10:23:54;;;;;;;8.70;1.63;;;;;;;;;;5125722;27;20051;-56
2023/10/29 10:26:30;;;;;;;4.18;1.38;;;;;;;;;;5131963;27;20562;-58
2023/10/29 10:28:58;;;;;;;7.28;1.20;;;;;;;;;;5144956;27;20047;-58
2023/10/29 10:31:27;;;;;;;9.88;2.40;;;;;;;;;;5143466;27;20044;-60
2023/10/29 10:34:14;;;;;;;8.15;1.25;;;;;;;;;;5128895;27;20157;-60
2023/10/29 10:36:41;;;;;;;5.53;1.48;;;;;;;;;;5139206;27;20043;-59
2023/10/29 10:39:08;;;;;;;8.05;2.08;;;;;;;;;;5146805;27;20055;-58
2023/10/29 10:41:45;;;;;;;9.90;1.45;;;;;;;;;;5127194;27;20052;-59
2023/10/29 10:44:12;;;;;;;9.80;1.42;;;;;;;;;;5136197;27;20507;-57
2023/10/29 10:46:47;;;;;;;7.88;1.45;;;;;;;;;;5136141;27;20409;-57
2023/10/29 10:49:15;;;;;;;8.95;1.52;;;;;;;;;;5133987;27;20055;-55
2023/10/29 10:51:41;;;;;;;6.43;1.40;;;;;;;;;;5133538;27;20554;-55
2023/10/29 10:54:08;;;;;;;5.95;1.52;;;;;;;;;;5135666;27;20498;-56
2023/10/29 10:56:36;;;;;;;7.70;1.65;;;;;;;;;;5137534;27;20178;-57
2023/10/29 10:59:06;;;;;;;6.22;2.15;;;;;;;;;;5134780;27;20559;-57
2023/10/29 11:01:33;;;;;;;7.22;1.77;;;;;;;;;;5132394;27;20051;-58
2023/10/29 11:04:01;;;;;;;9.52;1.83;;;;;;;;;;5137315;27;20080;-60
2023/10/29 11:06:28;;;;;;;11.40;1.75;;;;;;;;;;5135147;27;20070;-59
2023/10/29 11:08:55;;;;;;;9.60;1.60;;;;;;;;;;5134332;27;20054;-60
2023/10/29 11:11:27;;;;;;;4.70;1.27;;;;;;;;;;5138439;27;20425;-60
2023/10/29 11:14:12;;;;;;;7.43;1.58;;;;;;;;;;5144645;27;20600;-59
2023/10/29 11:16:46;;;;;;;5.32;1.23;;;;;;;;;;5145305;27;20134;-60
2023/10/29 11:19:31;;;;;;;6.40;1.40;;;;;;;;;;5145099;27;20047;-59
2023/10/29 11:22:15;;;;;;;8.80;2.15;;;;;;;;;;5098980;28;20052;-57
2023/10/29 11:24:42;;;;;;;5.43;1.50;;;;;;;;;;5086883;28;20117;-58
2023/10/29 11:27:27;;;;;;;9.70;1.60;;;;;;;;;;5099954;28;20538;-61
2023/10/29 11:30:09;;;;;;;6.60;1.38;;;;;;;;;;5097154;27;20056;-58
2023/10/29 11:32:36;;;;;;;9.07;1.77;;;;;;;;;;5088830;27;20052;-60
2023/10/29 11:35:14;;;;;;;8.40;1.83;;;;;;;;;;5102830;28;20055;-58
2023/10/29 11:37:41;;;;;;;10.68;1.85;;;;;;;;;;5102877;28;20513;-61
2023/10/29 11:40:23;;;;;;;10.63;1.60;;;;;;;;;;5090870;28;20059;-60
2023/10/29 11:42:53;;;;;;;8.10;2.05;;;;;;;;;;5088919;28;20048;-57
2023/10/29 11:45:25;;;;;;;9.85;2.13;;;;;;;;;;5102702;28;20072;-56
2023/10/29 11:48:10;;;;;;;7.65;1.63;;;;;;;;;;5103628;27;20502;-60
2023/10/29 11:50:40;;;;;;;10.10;2.40;;;;;;;;;;5103821;28;20052;-60
2023/10/29 11:53:21;;;;;;;5.90;1.50;;;;;;;;;;5100601;27;20771;-59
2023/10/29 11:55:47;;;;;;;11.02;2.25;;;;;;;;;;5093321;28;20114;-59
2023/10/29 11:58:18;;;;;;;10.70;1.60;;;;;;;;;;5083554;28;20147;-58
2023/10/29 12:00:44;;;;;;;7.35;1.40;;;;;;;;;;5083871;28;20052;-59
2023/10/29 12:03:17;;;;;;;6.85;1.70;;;;;;;;;;5088852;28;20506;-58
2023/10/29 12:05:53;;;;;;;7.00;1.77;;;;;;;;;;5103437;27;20067;-57
2023/10/29 12:08:19;;;;;;;;;;;;;;;;;;5102879;27;20059;-58
2023/10/29 12:10:45;;;;;;;5.72;1.52;;;;;;;;;;5098976;28;46365;-59
2023/10/29 12:13:12;;;;;;;3.95;1.40;;;;;;;;;;5095944;28;20514;-59
2023/10/29 12:15:39;;;;;;;8.00;1.80;;;;;;;;;;5101742;28;20079;-54
2023/10/29 12:18:05;;;;;;;12.43;1.98;;;;;;;;;;5092247;28;20048;-60
2023/10/29 12:20:32;;;;;;;9.35;1.73;;;;;;;;;;5099576;27;20514;-58
2023/10/29 12:23:02;;;;;;;10.00;1.77;;;;;;;;;;5134875;27;20059;-59
2023/10/29 12:25:29;;;;;;;9.40;1.90;;;;;;;;;;5145064;27;20047;-59
2023/10/29 12:27:55;;;;;;;4.63;1.50;;;;;;;;;;5140861;27;20527;-57
2023/10/29 12:30:35;;;;;;;8.27;1.60;;;;;;;;;;5136651;27;20582;-60
2023/10/29 12:33:18;;;;;;;6.38;1.40;;;;;;;;;;5123079;27;20456;-59
2023/10/29 12:35:47;;;;;;;7.28;1.80;;;;;;;;;;5124603;27;20058;-57
2023/10/29 12:38:15;;;;;;;11.23;2.17;;;;;;;;;;5123967;27;20428;-60
2023/10/29 12:41:00;;;;;;;6.90;1.58;;;;;;;;;;5104807;27;20047;-60
2023/10/29 12:43:36;;;;;;;7.70;1.30;;;;;;;;;;5136911;27;20051;-61
2023/10/29 12:46:03;;;;;;;10.50;1.83;;;;;;;;;;5129074;27;20659;-59
2023/10/29 12:48:30;;;;;;;6.85;1.42;;;;;;;;;;5124272;27;20056;-59
2023/10/29 12:50:57;;;;;;;9.43;1.70;;;;;;;;;;5123924;27;20134;-58
2023/10/29 12:53:30;;;;;;;6.93;1.60;;;;;;;;;;5136242;27;20417;-59
2023/10/29 12:55:58;;;;;;;7.00;2.22;;;;;;;;;;5144467;27;20065;-58
2023/10/29 12:58:26;;;;;;;6.97;1.55;;;;;;;;;;5124775;27;20051;-59
2023/10/29 13:00:52;;;;;;;12.82;1.95;;;;;;;;;;5144522;27;20053;-59
2023/10/29 13:03:22;;;;;;;8.43;2.15;;;;;;;;;;5139010;27;20051;-60
2023/10/29 13:05:49;;;;;;;7.68;1.83;;;;;;;;;;5144055;27;20449;-58
2023/10/29 13:08:16;;;;;;;8.13;1.73;;;;;;;;;;5138693;27;20477;-58
2023/10/29 13:10:46;;;;;;;7.55;1.70;;;;;;;;;;5124558;27;20510;-55
2023/10/29 13:13:15;;;;;;;6.28;1.40;;;;;;;;;;5141680;27;20067;-59
2023/10/29 13:15:42;;;;;;;8.27;1.95;;;;;;;;;;5129349;27;20058;-60
2023/10/29 13:18:09;;;;;;;8.60;1.60;;;;;;;;;;5131370;27;20154;-59
2023/10/29 13:20:38;;;;;;;9.05;1.85;;;;;;;;;;5143759;27;20103;-56
2023/10/29 13:23:05;;;;;;;11.18;1.92;;;;;;;;;;5143593;27;20410;-58
2023/10/29 13:25:31;;;;;;;10.20;2.08;;;;;;;;;;5126742;27;20047;-60
2023/10/29 13:27:58;;;;;;;7.07;1.60;;;;;;;;;;5133280;27;20058;-57
2023/10/29 13:30:25;;;;;;;8.73;1.63;;;;;;;;;;5138974;27;20056;-59
2023/10/29 13:32:51;;;;;;;7.70;1.58;;;;;;;;;;5123818;27;20055;-59
2023/10/29 13:35:18;;;;;;;9.05;2.50;;;;;;;;;;5123124;27;20139;-59
2023/10/29 13:37:44;;;;;;;9.23;1.80;;;;;;;;;;5135962;27;20055;-59
2023/10/29 13:40:12;;;;;;;10.80;1.73;;;;;;;;;;5134570;27;20056;-59
2023/10/29 13:42:38;;;;;;;8.07;1.50;;;;;;;;;;5138763;27;20091;-59
2023/10/29 13:45:05;;;;;;;9.40;2.15;;;;;;;;;;5144641;27;20058;-58
2023/10/29 13:47:31;;;;;;;5.95;1.88;;;;;;;;;;5110060;27;20050;-59
2023/10/29 13:49:58;;;;;;;9.27;1.77;;;;;;;;;;5131911;27;20059;-59
2023/10/29 13:52:25;;;;;;;12.38;1.95;;;;;;;;;;5140844;27;20131;-59
2023/10/29 13:54:51;;;;;;;7.43;1.83;;;;;;;;;;5123394;27;20039;-60
2023/10/29 13:57:17;;;;;;;6.15;1.50;;;;;;;;;;5124712;27;20062;-60
2023/10/29 13:59:46;;;;;;;9.82;1.70;;;;;;;;;;5127506;27;20048;-60
2023/10/29 14:02:12;;;;;;;10.48;2.20;;;;;;;;;;5125872;27;20060;-59
2023/10/29 14:04:39;;;;;;;6.82;1.80;;;;;;;;;;5127236;27;20055;-57
2023/10/29 14:07:05;;;;;;;8.30;1.83;;;;;;;;;;5144478;27;20112;-59
2023/10/29 14:09:32;;;;;;;11.32;2.10;;;;;;;;;;5146488;27;20054;-59
2023/10/29 14:11:59;;;;;;;14.55;2.75;;;;;;;;;;5146074;27;20055;-59
2023/10/29 14:14:26;;;;;;;10.50;2.10;;;;;;;;;;5145247;27;20120;-58
2023/10/29 14:16:54;;;;;;;6.85;1.63;;;;;;;;;;5148135;27;20558;-60
2023/10/29 14:19:23;;;;;;;8.20;1.60;;;;;;;;;;5146208;27;20580;-59
2023/10/29 14:21:52;;;;;;;11.88;1.75;;;;;;;;;;5146432;27;20142;-59
2023/10/29 14:24:19;;;;;;;6.30;1.20;;;;;;;;;;5143154;27;20083;-56
2023/10/29 14:26:46;;;;;;;7.82;2.47;;;;;;;;;;5127055;27;20051;-60
2023/10/29 14:29:12;;;;;;;8.75;1.75;;;;;;;;;;5126952;27;20086;-60
2023/10/29 14:31:39;;;;;;;7.72;2.28;;;;;;;;;;5126312;27;20478;-59
2023/10/29 14:34:06;;;;;;;11.85;1.60;;;;;;;;;;5138749;27;20135;-60
2023/10/29 14:36:33;;;;;;;12.82;2.08;;;;;;;;;;5126387;27;20179;-60
2023/10/29 14:39:00;;;;;;;8.73;2.13;;;;;;;;;;5114844;27;20062;-60
2023/10/29 14:41:26;;;;;;;5.85;1.73;;;;;;;;;;5125471;27;20047;-59
2023/10/29 14:43:53;;;;;;;8.57;1.85;;;;;;;;;;5137565;27;20047;-60
2023/10/29 14:46:19;;;;;;;6.28;2.15;;;;;;;;;;5143304;27;20051;-60